Time;durP1;ratioP1;P1;durP2;ratioP2;P2;SDS_P1;SDS_P2;PMS_P1;PMS_P2;Temp;Humidity;BMP_temperature;BMP_pressure;BME280_temperature;BME280_humidity;BME280_pressure;Samples;Min_cycle;Max_cycle;Signal;HPM_P1;HPM_P2
2023/12/07 00:01:34;;;;;;;;;;;;;;;8.02;91.06;101140.81;7313218;19;19922;-67
2023/12/07 00:04:01;;;;;;;;;;;;;;;8.08;92.04;101148.97;7308435;19;20565;-66
2023/12/07 00:06:28;;;;;;;;;;;;;;;8.08;91.37;101128.00;7305670;19;19983;-66
2023/12/07 00:08:56;;;;;;;;;;;;;;;8.06;90.99;101119.47;7311840;19;19990;-67
2023/12/07 00:11:23;;;;;;;;;;;;;;;8.06;91.05;101122.09;7306830;19;20211;-70
2023/12/07 00:13:51;;;;;;;;;;;;;;;8.08;91.31;101132.41;7311215;19;19952;-68
2023/12/07 00:16:18;;;;;;;;;;;;;;;8.08;91.26;101109.66;7308714;19;20294;-68
2023/12/07 00:18:45;;;;;;;;;;;;;;;8.08;91.34;101090.50;7314722;19;19923;-66
2023/12/07 00:21:12;;;;;;;;;;;;;;;8.09;91.19;101102.63;7314981;19;19960;-66
2023/12/07 00:23:39;;;;;;;;;;;;;;;8.12;90.74;101111.09;7309932;19;20240;-66
2023/12/07 00:26:06;;;;;;;;;;;;;;;8.14;91.27;101110.94;7307021;19;19938;-69
2023/12/07 00:28:33;;;;;;;;;;;;;;;8.16;91.68;101103.78;7316780;19;19926;-66
2023/12/07 00:31:01;;;;;;;;;;;;;;;8.15;91.16;101109.97;7310037;19;20539;-68
2023/12/07 00:33:29;;;;;;;;;;;;;;;8.18;91.52;101103.66;7307149;19;19983;-67
2023/12/07 00:35:57;;;;;;;;;;;;;;;8.17;90.89;101097.59;7310381;19;22452;-67
2023/12/07 00:38:24;;;;;;;;;;;;;;;8.18;90.84;101103.66;7319370;19;20307;-66
2023/12/07 00:40:51;;;;;;;;;;;;;;;8.21;91.16;101106.00;7315790;19;19926;-67
2023/12/07 00:43:18;;;;;;;;;;;;;;;8.21;90.49;101098.97;7310632;19;20367;-66
2023/12/07 00:45:52;;;;;;;;;;;;;;;8.25;90.28;101102.16;7315555;19;22392;-67
2023/12/07 00:48:19;;;;;;;;;;;;;;;8.24;90.33;101098.72;7309544;19;20341;-67
2023/12/07 00:50:47;;;;;;;;;;;;;;;8.26;90.39;101085.47;7317182;19;19923;-66
2023/12/07 00:53:15;;;;;;;;;;;;;;;8.25;90.39;101084.66;7322748;19;19927;-66
2023/12/07 00:55:43;;;;;;;;;;;;;;;8.23;90.59;101077.91;7318428;19;19919;-68
2023/12/07 00:58:13;;;;;;;;;;;;;;;8.22;90.78;101074.44;7319938;19;19927;-67
2023/12/07 01:00:41;;;;;;;;;;;;;;;8.24;90.95;101074.28;7316791;19;20269;-67
2023/12/07 01:03:08;;;;;;;;;;;;;;;8.23;90.54;101072.66;7307242;19;19950;-67
2023/12/07 01:05:38;;;;;;;;;;;;;;;8.23;90.50;101077.91;7302111;19;19942;-67
2023/12/07 01:08:08;;;;;;;;;;;;;;;8.24;90.45;101071.66;7301240;19;19919;-67
2023/12/07 01:10:35;;;;;;;;;;;;;;;8.26;90.89;101069.75;7306539;19;19918;-67
2023/12/07 01:13:02;;;;;;;;;;;;;;;8.29;91.26;101074.72;7320798;19;20981;-66
2023/12/07 01:15:29;;;;;;;;;;;;;;;8.30;91.16;101072.00;7310610;19;19914;-66
2023/12/07 01:17:57;;;;;;;;;;;;;;;8.30;91.10;101069.38;7314625;19;19914;-67
2023/12/07 01:20:24;;;;;;;;;;;;;;;8.29;91.12;101067.69;7318553;19;19923;-67
2023/12/07 01:22:51;;;;;;;;;;;;;;;8.35;91.76;101069.00;7318293;19;19919;-66
2023/12/07 01:25:21;;;;;;;;;;;;;;;8.34;91.27;101070.78;7311625;19;19930;-67
2023/12/07 01:27:49;;;;;;;;;;;;;;;8.34;90.99;101065.53;7308680;19;22317;-66
2023/12/07 01:30:16;;;;;;;;;;;;;;;8.32;90.55;101062.25;7314060;19;19982;-66
2023/12/07 01:32:44;;;;;;;;;;;;;;;8.37;90.77;101060.03;7323836;19;20396;-68
2023/12/07 01:35:11;;;;;;;;;;;;;;;8.36;90.73;101054.94;7313964;19;19986;-69
2023/12/07 01:37:38;;;;;;;;;;;;;;;8.39;90.60;101059.88;7315707;19;19950;-66
2023/12/07 01:40:09;;;;;;;;;;;;;;;8.39;91.25;101059.88;7313192;19;19990;-67
2023/12/07 01:42:37;;;;;;;;;;;;;;;8.41;91.21;101053.56;7317675;19;19926;-65
2023/12/07 01:45:05;;;;;;;;;;;;;;;8.43;91.31;101064.72;7303769;19;19919;-67
2023/12/07 01:47:38;;;;;;;;;;;;;;;8.43;91.31;101050.81;7318213;19;19923;-67
2023/12/07 01:50:05;;;;;;;;;;;;;;;8.44;91.56;101053.28;7320726;19;20598;-68
2023/12/07 01:52:35;;;;;;;;;;;;;;;8.42;91.04;101051.78;7310616;19;19919;-66
2023/12/07 01:55:03;;;;;;;;;;;;;;;8.45;91.03;101059.38;7303734;19;19973;-67
2023/12/07 01:57:30;;;;;;;;;;;;;;;8.44;91.49;101041.97;7312069;19;19930;-66
2023/12/07 01:59:58;;;;;;;;;;;;;;;8.44;91.65;101037.56;7318215;19;19982;-67
2023/12/07 02:02:25;;;;;;;;;;;;;;;8.45;91.94;101030.53;7314544;19;19915;-66
2023/12/07 02:04:52;;;;;;;;;;;;;;;8.44;91.90;101021.81;7308252;19;19915;-66
2023/12/07 02:07:20;;;;;;;;;;;;;;;8.48;91.66;101028.44;7323002;19;20736;-67
2023/12/07 02:09:47;;;;;;;;;;;;;;;8.48;91.20;101023.22;7312785;19;19936;-66
2023/12/07 02:12:15;;;;;;;;;;;;;;;8.51;91.20;101027.38;7312669;19;20612;-66
2023/12/07 02:14:42;;;;;;;;;;;;;;;8.48;90.74;101027.66;7324430;19;19927;-67
2023/12/07 02:17:19;;;;;;;;;;;;;;;8.51;91.11;101033.44;7314067;19;19934;-66
2023/12/07 02:19:52;;;;;;;;;;;;;;;8.55;91.79;101039.25;7315654;19;19923;-66
2023/12/07 02:22:32;;;;;;;;;;;;;;;8.58;91.95;101037.16;7314755;19;19982;-66
2023/12/07 02:24:59;;;;;;;;;;;;;;;8.57;91.76;101032.09;7317891;19;19918;-66
2023/12/07 02:27:39;;;;;;;;;;;;;;;8.57;91.13;101019.81;7316792;19;19910;-67
2023/12/07 02:30:08;;;;;;;;;;;;;;;8.59;90.88;101028.34;7324558;19;20707;-67
2023/12/07 02:32:39;;;;;;;;;;;;;;;8.57;90.69;101013.72;7323452;19;20425;-66
2023/12/07 02:35:08;;;;;;;;;;;;;;;8.57;91.21;101014.56;7318868;19;22140;-66
2023/12/07 02:37:42;;;;;;;;;;;;;;;8.58;90.83;101012.78;7320625;19;19936;-66
2023/12/07 02:40:10;;;;;;;;;;;;;;;8.63;91.08;101023.69;7324300;19;19919;-66
2023/12/07 02:42:39;;;;;;;;;;;;;;;8.64;91.32;101017.44;7324035;19;19918;-67
2023/12/07 02:45:07;;;;;;;;;;;;;;;8.66;92.05;101012.91;7324338;19;19925;-67
2023/12/07 02:47:35;;;;;;;;;;;;;;;8.64;91.77;100999.09;7322401;19;22256;-66
2023/12/07 02:50:02;;;;;;;;;;;;;;;8.64;92.16;100995.63;7319773;19;20580;-68
2023/12/07 02:52:30;;;;;;;;;;;;;;;8.63;91.89;100984.34;7324812;19;19923;-66
2023/12/07 02:54:57;;;;;;;;;;;;;;;8.61;91.44;100983.63;7317162;19;19927;-68
2023/12/07 02:57:24;;;;;;;;;;;;;;;8.56;91.02;100980.59;7322095;19;19960;-67
2023/12/07 02:59:51;;;;;;;;;;;;;;;8.57;91.15;100983.09;7314735;19;20211;-68
2023/12/07 03:02:19;;;;;;;;;;;;;;;8.61;91.43;100981.00;7303373;19;20450;-66
2023/12/07 03:04:46;;;;;;;;;;;;;;;8.65;91.83;100985.00;7322896;19;20258;-67
2023/12/07 03:07:13;;;;;;;;;;;;;;;8.65;91.76;100977.16;7299900;19;20256;-67
2023/12/07 03:09:41;;;;;;;;;;;;;;;8.62;91.79;100969.56;7293312;19;19933;-66
2023/12/07 03:12:08;;;;;;;;;;;;;;;8.65;91.87;100971.91;7314875;19;19930;-67
2023/12/07 03:14:35;;;;;;;;;;;;;;;8.59;91.48;100959.34;7321620;19;19982;-67
2023/12/07 03:17:02;;;;;;;;;;;;;;;8.62;91.19;100948.59;7322198;19;20385;-68
2023/12/07 03:19:30;;;;;;;;;;;;;;;8.64;91.67;100949.25;7316445;19;19919;-67
2023/12/07 03:21:57;;;;;;;;;;;;;;;8.65;91.89;100950.09;7315926;19;20401;-66
2023/12/07 03:24:24;;;;;;;;;;;;;;;8.67;91.88;100948.16;7315985;19;20003;-66
2023/12/07 03:26:52;;;;;;;;;;;;;;;8.70;91.99;100947.88;7311751;19;19919;-68
2023/12/07 03:29:29;;;;;;;;;;;;;;;8.65;91.75;100932.56;7310399;19;19925;-67
2023/12/07 03:31:58;;;;;;;;;;;;;;;8.69;92.28;100931.31;7311604;19;19927;-68
2023/12/07 03:34:25;;;;;;;;;;;;;;;8.72;92.54;100925.81;7306713;19;19923;-67
2023/12/07 03:36:52;;;;;;;;;;;;;;;8.71;92.54;100921.53;7316936;19;22047;-67
2023/12/07 03:39:21;;;;;;;;;;;;;;;8.69;93.01;100917.38;7322776;19;20670;-67
2023/12/07 03:41:48;;;;;;;;;;;;;;;8.69;93.66;100922.63;7322557;19;20735;-67
2023/12/07 03:44:16;;;;;;;;;;;;;;;8.68;94.49;100921.81;7319265;19;19922;-67
2023/12/07 03:46:44;;;;;;;;;;;;;;;8.66;94.40;100909.78;7329006;19;19923;-67
2023/12/07 03:49:12;;;;;;;;;;;;;;;8.62;94.47;100911.03;7323053;19;19937;-67
2023/12/07 03:51:39;;;;;;;;;;;;;;;8.61;95.21;100912.00;7314949;19;19911;-67
2023/12/07 03:54:06;;;;;;;;;;;;;;;8.59;95.56;100914.75;7324927;19;19929;-67
2023/12/07 03:56:33;;;;;;;;;;;;;;;8.61;96.07;100902.34;7316350;19;20309;-66
2023/12/07 03:59:01;;;;;;;;;;;;;;;8.62;96.29;100904.00;7314878;19;19925;-68
2023/12/07 04:01:28;;;;;;;;;;;;;;;8.60;96.72;100903.31;7322119;19;19918;-68
2023/12/07 04:03:56;;;;;;;;;;;;;;;8.62;96.93;100909.25;7312100;19;19915;-67
2023/12/07 04:06:24;;;;;;;;;;;;;;;8.60;95.79;100903.31;7310788;19;19926;-66
2023/12/07 04:08:51;;;;;;;;;;;;;;;8.55;95.82;100893.22;7312617;19;19929;-68
2023/12/07 04:11:18;;;;;;;;;;;;;;;8.55;95.62;100895.84;7289399;19;20867;-67
2023/12/07 04:13:46;;;;;;;;;;;;;;;8.59;96.33;100893.78;7302168;19;19931;-67
2023/12/07 04:16:13;;;;;;;;;;;;;;;8.56;96.35;100894.88;7320321;19;20362;-68
2023/12/07 04:18:40;;;;;;;;;;;;;;;8.51;96.25;100891.03;7309174;19;19921;-68
2023/12/07 04:21:07;;;;;;;;;;;;;;;8.55;96.12;100889.78;7314715;19;19960;-66
2023/12/07 04:23:34;;;;;;;;;;;;;;;8.58;96.08;100882.44;7310581;19;19919;-66
2023/12/07 04:26:01;;;;;;;;;;;;;;;8.59;96.32;100880.66;7305511;19;19918;-66
2023/12/07 04:28:30;;;;;;;;;;;;;;;8.64;97.38;100891.56;7303395;19;19907;-66
2023/12/07 04:30:57;;;;;;;;;;;;;;;8.64;97.64;100875.00;7315151;19;20599;-66
2023/12/07 04:33:25;;;;;;;;;;;;;;;8.56;96.84;100878.31;7319921;19;20365;-67
2023/12/07 04:35:52;;;;;;;;;;;;;;;8.55;97.33;100869.63;7328877;19;19971;-66
2023/12/07 04:38:19;;;;;;;;;;;;;;;8.56;97.54;100871.28;7327409;19;19919;-69
2023/12/07 04:40:46;;;;;;;;;;;;;;;8.56;97.85;100870.47;7313063;19;19918;-68
2023/12/07 04:43:14;;;;;;;;;;;;;;;8.59;98.12;100867.53;7327804;19;19935;-68
2023/12/07 04:45:41;;;;;;;;;;;;;;;8.56;97.61;100868.66;7323381;19;19945;-67
2023/12/07 04:48:08;;;;;;;;;;;;;;;8.55;97.80;100858.31;7327236;19;20423;-67
2023/12/07 04:50:36;;;;;;;;;;;;;;;8.54;98.25;100851.41;7312731;19;19928;-67
2023/12/07 04:53:03;;;;;;;;;;;;;;;8.53;98.53;100849.78;7305167;19;20311;-68
2023/12/07 04:55:31;;;;;;;;;;;;;;;8.44;98.76;100843.53;7302957;19;21188;-68
2023/12/07 04:57:58;;;;;;;;;;;;;;;8.50;98.85;100836.91;7309477;19;19923;-67
2023/12/07 05:00:27;;;;;;;;;;;;;;;8.51;99.20;100847.28;7311140;19;19919;-66
2023/12/07 05:02:54;;;;;;;;;;;;;;;8.54;99.06;100851.41;7312222;19;19918;-67
2023/12/07 05:05:21;;;;;;;;;;;;;;;8.55;99.37;100834.72;7311290;19;19923;-67
2023/12/07 05:07:48;;;;;;;;;;;;;;;8.56;99.30;100829.34;7323037;19;19933;-66
2023/12/07 05:10:15;;;;;;;;;;;;;;;8.59;99.90;100830.84;7304117;19;21024;-65
2023/12/07 05:12:43;;;;;;;;;;;;;;;8.63;100.00;100813.88;7312170;19;19933;-68
2023/12/07 05:15:10;;;;;;;;;;;;;;;8.62;100.00;100811.38;7300798;19;20200;-66
2023/12/07 05:17:39;;;;;;;;;;;;;;;8.62;100.00;100811.38;7296205;19;19930;-66
2023/12/07 05:20:07;;;;;;;;;;;;;;;8.56;100.00;100812.78;7312482;19;19925;-66
2023/12/07 05:22:34;;;;;;;;;;;;;;;8.57;100.00;100820.50;7306066;19;19933;-67
2023/12/07 05:25:01;;;;;;;;;;;;;;;8.63;100.00;100818.28;7311163;19;20847;-67
2023/12/07 05:27:28;;;;;;;;;;;;;;;8.55;100.00;100819.81;7299109;19;19954;-67
2023/12/07 05:29:56;;;;;;;;;;;;;;;8.56;100.00;100812.78;7319861;19;19964;-67
2023/12/07 05:32:23;;;;;;;;;;;;;;;8.58;100.00;100809.03;7314421;19;20288;-68
2023/12/07 05:34:51;;;;;;;;;;;;;;;8.61;100.00;100815.78;7308325;19;20068;-67
2023/12/07 05:37:18;;;;;;;;;;;;;;;8.60;100.00;100819.38;7310096;19;19941;-67
2023/12/07 05:39:45;;;;;;;;;;;;;;;8.57;100.00;100823.13;7308006;19;19929;-66
2023/12/07 05:42:12;;;;;;;;;;;;;;;8.58;100.00;100805.59;7321947;19;19932;-66
2023/12/07 05:44:39;;;;;;;;;;;;;;;8.53;100.00;100811.25;7322141;19;20636;-67
2023/12/07 05:47:07;;;;;;;;;;;;;;;8.55;100.00;100796.22;7319634;19;20592;-66
2023/12/07 05:49:35;;;;;;;;;;;;;;;8.52;100.00;100793.88;7318936;19;19978;-66
2023/12/07 05:52:02;;;;;;;;;;;;;;;8.51;100.00;100807.13;7316099;19;19926;-66
2023/12/07 05:54:30;;;;;;;;;;;;;;;8.55;100.00;100801.44;7313626;19;20957;-67
2023/12/07 05:56:57;;;;;;;;;;;;;;;8.53;100.00;100795.50;7323500;19;19919;-68
2023/12/07 05:59:24;;;;;;;;;;;;;;;8.53;100.00;100786.84;7321405;19;19962;-66
2023/12/07 06:01:51;;;;;;;;;;;;;;;8.54;100.00;100791.09;7310567;19;20988;-67
2023/12/07 06:04:19;;;;;;;;;;;;;;;8.54;100.00;100784.06;7319777;19;19918;-68
2023/12/07 06:06:52;;;;;;;;;;;;;;;8.55;100.00;100774.41;7324914;19;20213;-67
2023/12/07 06:09:19;;;;;;;;;;;;;;;8.53;100.00;100761.41;7319647;19;21704;-67
2023/12/07 06:11:46;;;;;;;;;;;;;;;8.53;100.00;100763.25;7321112;19;19986;-68
2023/12/07 06:14:14;;;;;;;;;;;;;;;8.55;100.00;100763.91;7319044;19;20194;-67
2023/12/07 06:16:41;;;;;;;;;;;;;;;8.60;100.00;100753.81;7316048;19;19919;-66
2023/12/07 06:19:08;;;;;;;;;;;;;;;8.59;100.00;100752.16;7315291;19;19922;-67
2023/12/07 06:21:36;;;;;;;;;;;;;;;8.53;100.00;100748.31;7311108;19;20404;-67
2023/12/07 06:24:03;;;;;;;;;;;;;;;8.54;100.00;100725.53;7320438;19;19927;-67
2023/12/07 06:26:30;;;;;;;;;;;;;;;8.55;100.00;100724.59;7319140;19;20192;-69
2023/12/07 06:28:57;;;;;;;;;;;;;;;8.53;100.00;100727.34;7304917;19;19925;-67
2023/12/07 06:31:24;;;;;;;;;;;;;;;8.51;100.00;100726.66;7316296;19;19926;-67
2023/12/07 06:33:52;;;;;;;;;;;;;;;8.54;100.00;100739.47;7297578;19;20500;-67
2023/12/07 06:36:20;;;;;;;;;;;;;;;8.56;100.00;100736.72;7307244;19;22206;-67
2023/12/07 06:38:47;;;;;;;;;;;;;;;8.56;100.00;100748.03;7326660;19;19990;-67
2023/12/07 06:41:18;;;;;;;;;;;;;;;8.58;100.00;100751.34;7336196;19;19921;-67
2023/12/07 06:43:46;;;;;;;;;;;;;;;8.60;100.00;100745.97;7333834;19;19982;-67
2023/12/07 06:46:13;;;;;;;;;;;;;;;8.58;100.00;100753.97;7313906;19;20902;-67
2023/12/07 06:48:41;;;;;;;;;;;;;;;8.59;100.00;100752.16;7316106;19;20009;-67
2023/12/07 06:51:08;;;;;;;;;;;;;;;8.63;100.00;100729.97;7316977;19;19978;-67
2023/12/07 06:53:36;;;;;;;;;;;;;;;8.56;100.00;100742.81;7322016;19;20372;-67
2023/12/07 06:56:03;;;;;;;;;;;;;;;8.62;100.00;100746.66;7324806;19;19926;-68
2023/12/07 06:58:31;;;;;;;;;;;;;;;8.66;100.00;100741.94;7315816;19;20256;-67
2023/12/07 07:00:58;;;;;;;;;;;;;;;8.66;100.00;100753.25;7316884;19;19964;-68
2023/12/07 07:03:27;;;;;;;;;;;;;;;8.67;100.00;100749.69;7324923;19;19922;-66
2023/12/07 07:05:56;;;;;;;;;;;;;;;8.68;100.00;100747.88;7319962;19;19923;-67
2023/12/07 07:08:22;;;;;;;;;;;;;;;8.67;100.00;100739.19;7321446;19;20934;-68
2023/12/07 07:10:49;;;;;;;;;;;;;;;8.69;100.00;100744.25;7316981;19;19926;-67
2023/12/07 07:13:17;;;;;;;;;;;;;;;8.68;100.00;100751.34;7322700;19;19922;-68
2023/12/07 07:15:44;;;;;;;;;;;;;;;8.70;100.00;100745.94;7315854;19;22544;-68
2023/12/07 07:18:11;;;;;;;;;;;;;;;8.70;100.00;100738.06;7314933;19;19914;-69
2023/12/07 07:20:39;;;;;;;;;;;;;;;8.73;100.00;100732.53;7322659;19;20206;-68
2023/12/07 07:23:07;;;;;;;;;;;;;;;8.71;100.00;100730.06;7310673;19;19923;-66
2023/12/07 07:25:34;;;;;;;;;;;;;;;8.73;100.00;100741.25;7327966;19;20268;-66
2023/12/07 07:28:02;;;;;;;;;;;;;;;8.73;100.00;100740.41;7323507;19;21009;-68
2023/12/07 07:30:29;;;;;;;;;;;;;;;8.75;100.00;100735.84;7318962;19;20494;-66
2023/12/07 07:32:56;;;;;;;;;;;;;;;8.79;100.00;100737.19;7329444;19;19918;-67
2023/12/07 07:35:23;;;;;;;;;;;;;;;8.80;100.00;100726.56;7321533;19;20527;-67
2023/12/07 07:37:50;;;;;;;;;;;;;;;8.79;100.00;100727.53;7313296;19;20432;-67
2023/12/07 07:40:16;;;;;;;;;;;;;;;8.78;99.54;100718.03;7317133;19;21754;-67
2023/12/07 07:42:44;;;;;;;;;;;;;;;8.86;100.00;100718.13;7323565;19;20036;-66
2023/12/07 07:45:10;;;;;;;;;;;;;;;8.91;100.00;100717.69;7320175;19;20278;-67
2023/12/07 07:47:44;;;;;;;;;;;;;;;8.92;99.44;100712.31;7311856;19;20044;-68
2023/12/07 07:50:11;;;;;;;;;;;;;;;8.95;99.40;100701.50;7318012;19;19923;-67
2023/12/07 07:52:39;;;;;;;;;;;;;;;8.96;99.29;100707.59;7318801;19;19915;-69
2023/12/07 07:55:07;;;;;;;;;;;;;;;8.94;99.15;100699.03;7310815;19;20009;-67
2023/12/07 07:57:34;;;;;;;;;;;;;;;8.94;98.86;100693.78;7319269;19;19919;-66
2023/12/07 08:00:01;;;;;;;;;;;;;;;8.97;98.93;100680.38;7318724;19;19982;-67
2023/12/07 08:02:28;;;;;;;;;;;;;;;8.99;98.88;100691.53;7322082;19;19962;-67
2023/12/07 08:04:56;;;;;;;;;;;;;;;8.99;98.56;100687.13;7328811;19;19952;-67
2023/12/07 08:07:23;;;;;;;;;;;;;;;9.01;98.26;100692.22;7324724;19;20340;-66
2023/12/07 08:09:50;;;;;;;;;;;;;;;9.04;99.45;100689.31;7319898;19;19957;-67
2023/12/07 08:12:18;;;;;;;;;;;;;;;9.01;97.42;100679.94;7324606;19;20473;-66
2023/12/07 08:14:45;;;;;;;;;;;;;;;8.99;96.79;100674.00;7303457;19;19923;-68
2023/12/07 08:17:12;;;;;;;;;;;;;;;9.01;97.50;100669.44;7316532;19;20409;-67
2023/12/07 08:19:41;;;;;;;;;;;;;;;9.06;97.60;100673.41;7319101;19;20768;-67
2023/12/07 08:22:08;;;;;;;;;;;;;;;9.05;97.48;100671.75;7301459;19;19954;-67
2023/12/07 08:24:36;;;;;;;;;;;;;;;9.08;97.54;100666.22;7314798;19;19918;-67
2023/12/07 08:27:03;;;;;;;;;;;;;;;9.09;97.70;100668.72;7314115;19;20383;-66
2023/12/07 08:29:30;;;;;;;;;;;;;;;9.10;97.61;100662.47;7317147;19;19918;-66
2023/12/07 08:31:57;;;;;;;;;;;;;;;9.07;97.40;100654.09;7322537;19;19935;-66
2023/12/07 08:34:33;;;;;;;;;;;;;;;9.09;97.14;100650.34;7319173;19;19918;-66
2023/12/07 08:37:00;;;;;;;;;;;;;;;9.13;97.39;100649.06;7316337;19;20442;-67
2023/12/07 08:39:27;;;;;;;;;;;;;;;9.15;97.10;100633.16;7309233;19;19925;-66
2023/12/07 08:41:54;;;;;;;;;;;;;;;9.07;96.38;100633.91;7304147;19;19925;-69
2023/12/07 08:44:28;;;;;;;;;;;;;;;9.13;96.12;100625.47;7317403;19;19915;-66
2023/12/07 08:46:56;;;;;;;;;;;;;;;9.18;96.36;100625.84;7310531;19;19923;-67
2023/12/07 08:49:22;;;;;;;;;;;;;;;9.17;96.21;100626.81;7314534;19;19952;-66
2023/12/07 08:51:50;;;;;;;;;;;;;;;9.20;95.55;100618.63;7313066;19;19923;-67
2023/12/07 08:54:38;;;;;;;;;;;;;;;9.24;96.10;100613.91;7315080;19;20862;-67
2023/12/07 08:57:07;;;;;;;;;;;;;;;9.25;96.64;100612.91;7317285;19;19922;-68
2023/12/07 08:59:34;;;;;;;;;;;;;;;9.24;96.44;100611.28;7317291;19;20352;-68
2023/12/07 09:02:01;;;;;;;;;;;;;;;9.24;95.73;100604.25;7326961;19;20438;-67
2023/12/07 09:04:33;;;;;;;;;;;;;;;9.27;95.71;100606.56;7323529;19;19923;-66
2023/12/07 09:07:01;;;;;;;;;;;;;;;9.29;95.11;100602.00;7320831;19;19929;-68
2023/12/07 09:09:28;;;;;;;;;;;;;;;9.30;94.47;100587.88;7313365;19;20390;-67
2023/12/07 09:11:55;;;;;;;;;;;;;;;9.29;94.78;100582.78;7313881;19;19911;-67
2023/12/07 09:14:26;;;;;;;;;;;;;;;9.30;94.25;100576.53;7310185;19;19921;-66
2023/12/07 09:16:55;;;;;;;;;;;;;;;9.29;93.76;100575.75;7321224;19;20703;-66
2023/12/07 09:19:23;;;;;;;;;;;;;;;9.30;93.65;100573.91;7320813;19;19914;-67
2023/12/07 09:21:51;;;;;;;;;;;;;;;9.34;94.05;100568.25;7312170;19;19925;-68
2023/12/07 09:24:22;;;;;;;;;;;;;;;9.32;93.75;100554.44;7319721;19;19918;-67
2023/12/07 09:26:50;;;;;;;;;;;;;;;9.41;93.68;100555.31;7320285;19;21150;-68
2023/12/07 09:29:17;;;;;;;;;;;;;;;9.45;93.94;100544.34;7317114;19;22383;-68
2023/12/07 09:31:44;;;;;;;;;;;;;;;9.48;93.36;100540.59;7323155;19;19933;-68
2023/12/07 09:34:12;;;;;;;;;;;;;;;9.52;92.88;100544.56;7327920;19;19922;-68
2023/12/07 09:36:39;;;;;;;;;;;;;;;9.56;92.72;100539.81;7318761;19;19923;-66
2023/12/07 09:39:06;;;;;;;;;;;;;;;9.61;92.12;100532.31;7326594;19;20360;-67
2023/12/07 09:41:33;;;;;;;;;;;;;;;9.68;91.36;100528.09;7324139;19;21489;-66
2023/12/07 09:44:00;;;;;;;;;;;;;;;9.72;91.60;100530.25;7323576;19;19987;-66
2023/12/07 09:46:28;;;;;;;;;;;;;;;9.69;91.13;100521.88;7317036;19;20606;-67
2023/12/07 09:48:55;;;;;;;;;;;;;;;9.76;90.46;100517.63;7323572;19;20014;-67
2023/12/07 09:51:23;;;;;;;;;;;;;;;9.77;90.25;100520.13;7315732;19;19919;-68
2023/12/07 09:53:53;;;;;;;;;;;;;;;9.79;90.75;100510.28;7314634;19;19927;-67
2023/12/07 09:56:24;;;;;;;;;;;;;;;9.77;90.30;100511.41;7317175;19;19923;-67
2023/12/07 09:58:51;;;;;;;;;;;;;;;9.88;92.82;100511.16;7327357;19;20001;-67
2023/12/07 10:01:18;;;;;;;;;;;;;;;9.90;91.80;100511.81;7325006;19;19922;-68
2023/12/07 10:03:47;;;;;;;;;;;;;;;9.86;90.60;100510.47;7317593;19;19929;-67
2023/12/07 10:06:15;;;;;;;;;;;;;;;9.93;91.50;100511.50;7311411;19;19914;-68
2023/12/07 10:08:44;;;;;;;;;;;;;;;9.94;90.52;100515.78;7318478;19;21666;-68
2023/12/07 10:11:14;;;;;;;;;;;;;;;9.88;90.19;100511.97;7323306;19;21092;-66
2023/12/07 10:13:42;;;;;;;;;;;;;;;9.91;89.79;100516.06;7319870;19;19926;-68
2023/12/07 10:16:14;;;;;;;;;;;;;;;9.96;89.94;100516.44;7324022;19;19986;-66
2023/12/07 10:18:42;;;;;;;;;;;;;;;10.16;92.52;100514.41;7321444;19;19941;-66
2023/12/07 10:21:10;;;;;;;;;;;;;;;10.19;89.95;100508.84;7317787;19;19991;-66
2023/12/07 10:23:38;;;;;;;;;;;;;;;10.16;86.76;100509.16;7325852;19;22740;-66
2023/12/07 10:26:06;;;;;;;;;;;;;;;10.12;87.12;100500.75;7318992;19;19919;-67
2023/12/07 10:28:39;;;;;;;;;;;;;;;10.12;86.83;100492.03;7321490;19;20026;-66
2023/12/07 10:31:11;;;;;;;;;;;;;;;10.12;87.51;100484.16;7314785;19;19922;-68
2023/12/07 10:33:38;;;;;;;;;;;;;;;10.10;86.93;100481.69;7318078;19;19994;-66
2023/12/07 10:36:06;;;;;;;;;;;;;;;10.08;86.62;100467.88;7317798;19;21180;-66
2023/12/07 10:38:33;;;;;;;;;;;;;;;10.08;86.09;100467.03;7312263;19;20418;-67
2023/12/07 10:41:05;;;;;;;;;;;;;;;10.04;85.66;100456.03;7311025;19;20506;-67
2023/12/07 10:43:36;;;;;;;;;;;;;;;10.07;85.54;100447.81;7312089;19;19926;-67
2023/12/07 10:46:05;;;;;;;;;;;;;;;10.10;85.16;100425.66;7322264;19;19936;-67
2023/12/07 10:48:32;;;;;;;;;;;;;;;10.10;85.21;100428.28;7308725;19;20059;-65
2023/12/07 10:51:00;;;;;;;;;;;;;;;10.11;85.45;100430.75;7312021;19;20337;-66
2023/12/07 10:53:29;;;;;;;;;;;;;;;10.12;84.53;100435.03;7310990;19;19929;-69
2023/12/07 10:56:00;;;;;;;;;;;;;;;10.19;85.60;100425.56;7304774;19;19915;-67
2023/12/07 10:58:27;;;;;;;;;;;;;;;10.19;84.69;100420.31;7319420;19;19926;-66
2023/12/07 11:00:57;;;;;;;;;;;;;;;10.24;83.69;100430.34;7321645;19;19925;-66
2023/12/07 11:03:25;;;;;;;;;;;;;;;10.26;84.47;100436.22;7311358;19;19919;-67
2023/12/07 11:05:52;;;;;;;;;;;;;;;10.24;83.72;100432.97;7323274;19;20822;-67
2023/12/07 11:08:39;;;;;;;;;;;;;;;10.30;83.95;100419.19;7319734;19;19918;-67
2023/12/07 11:11:10;;;;;;;;;;;;;;;10.33;83.31;100413.59;7320738;19;20473;-67
2023/12/07 11:13:37;;;;;;;;;;;;;;;10.37;83.48;100407.00;7326057;19;19937;-67
2023/12/07 11:16:05;;;;;;;;;;;;;;;10.41;83.84;100418.06;7317315;19;20252;-67
2023/12/07 11:18:32;;;;;;;;;;;;;;;10.41;83.41;100418.06;7320888;19;20062;-66
2023/12/07 11:21:00;;;;;;;;;;;;;;;10.41;82.62;100426.75;7315017;19;19942;-67
2023/12/07 11:23:28;;;;;;;;;;;;;;;10.38;83.25;100403.41;7320915;19;19921;-66
2023/12/07 11:25:56;;;;;;;;;;;;;;;10.34;82.40;100402.09;7315107;19;22394;-67
2023/12/07 11:28:36;;;;;;;;;;;;;;;10.34;83.01;100403.88;7322057;19;19917;-68
2023/12/07 11:31:06;;;;;;;;;;;;;;;10.37;83.77;100396.50;7313984;19;19958;-66
2023/12/07 11:33:32;;;;;;;;;;;;;;;10.31;83.66;100384.00;7307880;19;20303;-66
2023/12/07 11:36:00;;;;;;;;;;;;;;;10.31;82.66;100380.56;7319857;19;19919;-67
2023/12/07 11:38:27;;;;;;;;;;;;;;;10.34;82.76;100380.22;7316288;19;20379;-68
2023/12/07 11:40:55;;;;;;;;;;;;;;;10.33;82.12;100383.84;7320540;19;19921;-67
2023/12/07 11:43:40;;;;;;;;;;;;;;;10.26;81.90;100373.97;7311737;19;19937;-66
2023/12/07 11:46:07;;;;;;;;;;;;;;;10.27;82.11;100365.09;7309914;19;19968;-67
2023/12/07 11:48:35;;;;;;;;;;;;;;;10.28;82.01;100360.66;7312656;19;19962;-66
2023/12/07 11:51:04;;;;;;;;;;;;;;;10.31;82.94;100359.53;7321946;19;20351;-66
2023/12/07 11:53:32;;;;;;;;;;;;;;;10.36;83.94;100358.06;7316543;19;22206;-68
2023/12/07 11:55:59;;;;;;;;;;;;;;;10.29;82.90;100355.25;7321043;19;19922;-67
2023/12/07 11:58:27;;;;;;;;;;;;;;;10.28;81.37;100342.25;7316445;19;19922;-68
2023/12/07 12:00:56;;;;;;;;;;;;;;;10.30;81.56;100337.66;7316911;19;19914;-69
2023/12/07 12:03:24;;;;;;;;;;;;;;;10.25;80.54;100321.56;7315552;19;19922;-68
2023/12/07 12:05:51;;;;;;;;;;;;;;;10.28;80.90;100315.97;7321966;19;20321;-66
2023/12/07 12:08:18;;;;;;;;;;;;;;;10.23;80.03;100311.19;7317157;19;19910;-67
2023/12/07 12:10:46;;;;;;;;;;;;;;;10.25;80.87;100297.91;7325561;19;20358;-67
2023/12/07 12:13:13;;;;;;;;;;;;;;;10.25;80.98;100296.09;7313395;19;19922;-66
2023/12/07 12:15:40;;;;;;;;;;;;;;;10.26;80.52;100296.88;7314544;19;19925;-67
2023/12/07 12:18:07;;;;;;;;;;;;;;;10.27;80.78;100288.84;7317005;19;19940;-67
2023/12/07 12:20:34;;;;;;;;;;;;;;;10.24;79.15;100285.72;7316556;19;20487;-67
2023/12/07 12:23:02;;;;;;;;;;;;;;;10.28;79.85;100276.53;7334540;19;20631;-67
2023/12/07 12:25:33;;;;;;;;;;;;;;;10.30;79.75;100274.56;7325352;19;19915;-67
2023/12/07 12:28:03;;;;;;;;;;;;;;;10.34;80.74;100280.31;7322067;19;19934;-66
2023/12/07 12:30:31;;;;;;;;;;;;;;;10.36;79.92;100273.09;7310373;19;19915;-67
2023/12/07 12:32:59;;;;;;;;;;;;;;;10.39;79.60;100273.56;7322243;19;20383;-66
2023/12/07 12:35:32;;;;;;;;;;;;;;;10.41;78.94;100276.03;7320693;19;19918;-66
2023/12/07 12:37:59;;;;;;;;;;;;;;;10.35;77.90;100266.19;7311036;19;20301;-70
2023/12/07 12:40:28;;;;;;;;;;;;;;;10.36;77.85;100263.38;7314117;19;19997;-67
2023/12/07 12:42:55;;;;;;;;;;;;;;;10.39;78.06;100259.59;7321271;19;20360;-67
2023/12/07 12:45:24;;;;;;;;;;;;;;;10.36;77.39;100258.13;7319778;19;19922;-67
2023/12/07 12:47:53;;;;;;;;;;;;;;;10.35;76.90;100253.03;7310875;19;20245;-67